createdAt,value
2023-01-17T00:01:29.463Z,8.50
2023-01-17T00:04:15.107Z,8.50
2023-01-17T00:07:01.195Z,8.40
2023-01-17T00:09:48.541Z,8.40
2023-01-17T00:12:16.640Z,8.40
2023-01-17T00:14:44.865Z,8.50
2023-01-17T00:17:13.120Z,8.40
2023-01-17T00:19:59.020Z,8.40
2023-01-17T00:22:47.148Z,8.40
2023-01-17T00:25:35.680Z,8.40
2023-01-17T00:28:03.064Z,8.40
2023-01-17T00:30:30.169Z,8.40
2023-01-17T00:32:57.191Z,8.40
2023-01-17T00:35:25.573Z,8.40
2023-01-17T00:38:02.003Z,8.40
2023-01-17T00:40:30.828Z,8.40
2023-01-17T00:43:16.653Z,8.30
2023-01-17T00:46:03.140Z,8.30
2023-01-17T00:48:49.182Z,8.30
2023-01-17T00:51:35.001Z,8.30
2023-01-17T00:54:20.897Z,8.30
2023-01-17T00:57:08.011Z,8.30
2023-01-17T00:59:53.948Z,8.20
2023-01-17T01:02:40.075Z,8.20
2023-01-17T01:05:26.539Z,8.20
2023-01-17T01:08:12.466Z,8.10
2023-01-17T01:10:58.509Z,8.10
2023-01-17T01:13:47.470Z,8.00
2023-01-17T01:16:33.492Z,8.00
2023-01-17T01:19:19.389Z,8.00
2023-01-17T01:22:05.440Z,8.00
2023-01-17T01:24:51.551Z,7.90
2023-01-17T01:27:37.518Z,7.90
2023-01-17T01:30:26.445Z,7.80
2023-01-17T01:33:12.208Z,7.80
2023-01-17T01:35:41.856Z,7.80
2023-01-17T01:38:10.103Z,7.80
2023-01-17T01:40:44.626Z,7.70
2023-01-17T01:43:14.355Z,7.70
2023-01-17T01:45:46.432Z,7.80
2023-01-17T01:48:34.537Z,7.70
2023-01-17T01:51:05.060Z,7.60
2023-01-17T01:53:33.753Z,7.60
2023-01-17T01:56:01.940Z,7.60
2023-01-17T01:58:30.275Z,7.60
2023-01-17T02:00:59.953Z,7.50
2023-01-17T02:03:30.458Z,7.50
2023-01-17T02:05:58.942Z,7.50
2023-01-17T02:08:27.209Z,7.50
2023-01-17T02:10:55.298Z,7.50
2023-01-17T02:13:23.653Z,7.50
2023-01-17T02:16:01.065Z,7.50
2023-01-17T02:18:40.082Z,7.50
2023-01-17T02:21:20.532Z,7.50
2023-01-17T02:24:49.189Z,7.50
2023-01-17T02:27:24.970Z,7.50
2023-01-17T02:30:34.202Z,7.50
2023-01-17T02:33:11.957Z,7.50
2023-01-17T02:35:47.244Z,7.50
2023-01-17T02:38:28.655Z,7.50
2023-01-17T02:41:00.008Z,7.50
2023-01-17T02:43:28.287Z,7.50
2023-01-17T02:45:57.794Z,7.50
2023-01-17T02:48:28.146Z,7.50
2023-01-17T02:51:36.656Z,7.50
2023-01-17T02:54:29.542Z,7.50
2023-01-17T02:57:14.630Z,7.50
2023-01-17T02:59:47.379Z,7.50
2023-01-17T03:02:23.504Z,7.50
2023-01-17T03:04:55.015Z,7.50
2023-01-17T03:07:25.566Z,7.50
2023-01-17T03:09:59.413Z,7.50
2023-01-17T03:12:29.167Z,7.60
2023-01-17T03:14:57.326Z,7.60
2023-01-17T03:17:29.571Z,7.60
2023-01-17T03:19:57.684Z,7.60
2023-01-17T03:22:25.998Z,7.70
2023-01-17T03:24:54.111Z,7.70
2023-01-17T03:27:22.320Z,7.70
2023-01-17T03:29:50.430Z,7.70
2023-01-17T03:32:19.068Z,7.70
2023-01-17T03:34:48.576Z,7.70
2023-01-17T03:37:16.679Z,7.70
2023-01-17T03:39:44.825Z,7.70
2023-01-17T03:42:13.024Z,7.70
2023-01-17T03:44:41.241Z,7.70
2023-01-17T03:47:11.900Z,7.70
2023-01-17T03:49:40.510Z,7.70
2023-01-17T03:52:09.961Z,7.60
2023-01-17T03:54:38.132Z,7.60
2023-01-17T03:57:06.451Z,7.60
2023-01-17T03:59:34.737Z,7.50
2023-01-17T04:02:03.147Z,7.50
2023-01-17T04:04:31.385Z,7.50
2023-01-17T04:06:59.557Z,7.40
2023-01-17T04:09:33.881Z,7.30
2023-01-17T04:12:02.455Z,7.30
2023-01-17T04:14:30.590Z,7.20
2023-01-17T04:16:58.856Z,7.20
2023-01-17T04:19:27.011Z,7.20
2023-01-17T04:21:55.102Z,7.10
2023-01-17T04:24:23.269Z,7.00
2023-01-17T04:26:52.732Z,7.00
2023-01-17T04:29:21.013Z,7.00
2023-01-17T04:31:49.113Z,6.90
2023-01-17T04:34:17.449Z,6.90
2023-01-17T04:36:46.122Z,6.90
2023-01-17T04:39:14.294Z,6.90
2023-01-17T04:41:43.799Z,6.90
2023-01-17T04:44:13.332Z,6.90
2023-01-17T04:46:41.490Z,7.00
2023-01-17T04:49:09.607Z,7.00
2023-01-17T04:51:37.802Z,7.00
2023-01-17T04:54:06.043Z,7.00
2023-01-17T04:56:34.329Z,7.00
2023-01-17T04:59:02.923Z,7.00
2023-01-17T05:01:32.623Z,7.00
2023-01-17T05:04:00.992Z,7.00
2023-01-17T05:06:29.309Z,7.10
2023-01-17T05:08:57.474Z,7.10
2023-01-17T05:11:25.725Z,7.10
2023-01-17T05:13:53.927Z,7.10
2023-01-17T05:16:22.183Z,7.10
2023-01-17T05:18:53.579Z,7.10
2023-01-17T05:21:21.940Z,7.10
2023-01-17T05:23:50.289Z,7.20
2023-01-17T05:26:18.556Z,7.20
2023-01-17T05:28:46.724Z,7.20
2023-01-17T05:31:14.891Z,7.20
2023-01-17T05:33:43.048Z,7.30
2023-01-17T05:36:12.590Z,7.30
2023-01-17T05:38:40.717Z,7.30
2023-01-17T05:41:08.815Z,7.30
2023-01-17T05:43:36.926Z,7.30
2023-01-17T05:46:05.224Z,7.30
2023-01-17T05:48:33.438Z,7.30
2023-01-17T05:51:01.720Z,7.30
2023-01-17T05:53:31.583Z,7.30
2023-01-17T05:55:59.724Z,7.30
2023-01-17T05:58:27.913Z,7.30
2023-01-17T06:00:56.574Z,7.30
2023-01-17T06:03:24.829Z,7.30
2023-01-17T06:05:53.002Z,7.30
2023-01-17T06:08:23.365Z,7.30
2023-01-17T06:10:52.844Z,7.30
2023-01-17T06:13:22.028Z,7.40
2023-01-17T06:15:50.273Z,7.40
2023-01-17T06:18:18.999Z,7.30
2023-01-17T06:20:47.188Z,7.40
2023-01-17T06:23:15.933Z,7.30
2023-01-17T06:25:45.059Z,7.30
2023-01-17T06:28:16.163Z,7.30
2023-01-17T06:30:44.670Z,7.30
2023-01-17T06:33:12.947Z,7.30
2023-01-17T06:35:43.035Z,7.30
2023-01-17T06:38:11.160Z,7.30
2023-01-17T06:40:39.505Z,7.20
2023-01-17T06:43:07.592Z,7.20
2023-01-17T06:45:37.108Z,7.20
2023-01-17T06:48:06.167Z,7.20
2023-01-17T06:50:34.622Z,7.20
2023-01-17T06:53:07.697Z,7.20
2023-01-17T06:55:35.976Z,7.20
2023-01-17T06:58:04.103Z,7.20
2023-01-17T07:00:34.862Z,7.20
2023-01-17T07:03:04.509Z,7.20
2023-01-17T07:05:32.801Z,7.20
2023-01-17T07:08:01.023Z,7.10
2023-01-17T07:10:29.182Z,7.10
2023-01-17T07:13:00.743Z,7.10
2023-01-17T07:15:29.040Z,7.10
2023-01-17T07:17:57.184Z,7.10
2023-01-17T07:20:26.618Z,7.00
2023-01-17T07:22:54.748Z,7.00
2023-01-17T07:25:22.910Z,7.00
2023-01-17T07:27:54.034Z,6.90
2023-01-17T07:30:22.467Z,6.90
2023-01-17T07:32:53.350Z,6.80
2023-01-17T07:35:21.503Z,6.70
2023-01-17T07:37:51.029Z,6.70
2023-01-17T07:40:19.986Z,6.60
2023-01-17T07:42:48.283Z,6.50
2023-01-17T07:45:17.002Z,6.50
2023-01-17T07:47:45.207Z,6.40
2023-01-17T07:50:14.073Z,6.40
2023-01-17T07:52:42.336Z,6.40
2023-01-17T07:55:12.040Z,6.30
2023-01-17T07:57:40.193Z,6.30
2023-01-17T08:00:10.331Z,6.30
2023-01-17T08:02:41.315Z,6.30
2023-01-17T08:05:10.212Z,6.20
2023-01-17T08:07:38.342Z,6.20
2023-01-17T08:10:08.776Z,6.10
2023-01-17T08:12:38.721Z,6.00
2023-01-17T08:15:08.741Z,6.00
2023-01-17T08:17:36.842Z,5.90
2023-01-17T08:20:06.152Z,5.90
2023-01-17T08:22:34.318Z,5.80
2023-01-17T08:25:02.662Z,5.80
2023-01-17T08:27:30.888Z,5.80
2023-01-17T08:30:00.473Z,5.80
2023-01-17T08:32:28.589Z,5.70
2023-01-17T08:34:57.219Z,5.70
2023-01-17T08:37:25.445Z,5.60
2023-01-17T08:39:53.634Z,5.60
2023-01-17T08:42:21.776Z,5.60
2023-01-17T08:44:50.391Z,5.50
2023-01-17T08:47:19.863Z,5.50
2023-01-17T08:49:48.021Z,5.50
2023-01-17T08:52:16.134Z,5.50
2023-01-17T08:54:44.300Z,5.60
2023-01-17T08:57:12.435Z,5.60
2023-01-17T08:59:40.651Z,5.60
2023-01-17T09:02:14.972Z,5.60
2023-01-17T09:04:46.411Z,5.70
2023-01-17T09:07:14.678Z,5.70
2023-01-17T09:09:42.956Z,5.80
2023-01-17T09:12:11.108Z,5.90
2023-01-17T09:14:39.318Z,6.00
2023-01-17T09:17:07.881Z,6.10
2023-01-17T09:19:38.795Z,6.10
2023-01-17T09:22:10.102Z,6.20
2023-01-17T09:24:38.268Z,6.30
2023-01-17T09:27:07.121Z,6.40
2023-01-17T09:29:35.411Z,6.50
2023-01-17T09:32:03.597Z,6.60
2023-01-17T09:34:31.837Z,6.70
2023-01-17T09:37:00.004Z,6.80
2023-01-17T09:39:29.655Z,6.90
2023-01-17T09:42:01.819Z,6.90
2023-01-17T09:44:33.141Z,7.10
2023-01-17T09:47:06.054Z,7.20
2023-01-17T09:49:37.872Z,7.30
2023-01-17T09:52:07.041Z,7.40
2023-01-17T09:54:38.901Z,7.60
2023-01-17T09:57:18.441Z,7.70
2023-01-17T10:00:02.878Z,7.80
2023-01-17T10:03:01.820Z,7.90
2023-01-17T10:05:47.054Z,8.00
2023-01-17T10:08:28.518Z,8.20
2023-01-17T10:11:11.180Z,8.20
2023-01-17T10:13:42.837Z,8.30
2023-01-17T10:16:21.370Z,8.40
2023-01-17T10:19:22.884Z,8.50
2023-01-17T10:22:10.185Z,8.50
2023-01-17T10:25:07.610Z,8.50
2023-01-17T10:27:39.690Z,8.60
2023-01-17T10:30:24.001Z,8.70
2023-01-17T10:32:52.293Z,8.70
2023-01-17T10:35:24.915Z,8.70
2023-01-17T10:37:56.670Z,8.80
2023-01-17T10:40:30.744Z,8.80
2023-01-17T10:43:03.806Z,8.90
2023-01-17T10:45:34.940Z,8.90
2023-01-17T10:48:06.500Z,9.00
2023-01-17T10:50:42.072Z,9.00
2023-01-17T10:53:11.941Z,9.00
2023-01-17T10:55:43.107Z,9.00
2023-01-17T10:58:13.296Z,9.00
2023-01-17T11:00:45.081Z,9.10
2023-01-17T11:03:13.631Z,9.10
2023-01-17T11:05:42.796Z,9.10
2023-01-17T11:08:13.394Z,9.20
2023-01-17T11:10:44.593Z,9.20
2023-01-17T11:13:30.147Z,9.20
2023-01-17T11:16:00.789Z,9.30
2023-01-17T11:18:30.113Z,9.40
2023-01-17T11:21:12.787Z,9.50
2023-01-17T11:23:42.682Z,9.60
2023-01-17T11:26:13.284Z,9.70
2023-01-17T11:28:42.808Z,9.80
2023-01-17T11:31:26.399Z,9.90
2023-01-17T11:34:10.207Z,10.00
2023-01-17T11:38:18.987Z,10.10
2023-01-17T11:40:47.855Z,10.10
2023-01-17T11:43:23.794Z,10.10
2023-01-17T11:46:17.774Z,10.10
2023-01-17T11:48:49.175Z,10.10
2023-01-17T11:51:27.155Z,10.10
2023-01-17T11:54:08.091Z,10.00
2023-01-17T11:56:37.000Z,9.90
2023-01-17T11:59:28.468Z,9.90
2023-01-17T12:02:31.772Z,9.80
2023-01-17T12:05:09.422Z,9.80
2023-01-17T12:07:42.789Z,9.70
2023-01-17T12:10:16.272Z,9.70
2023-01-17T12:13:12.539Z,9.70
2023-01-17T12:15:59.921Z,9.80
2023-01-17T12:18:40.011Z,9.90
2023-01-17T12:21:17.508Z,9.90
2023-01-17T12:24:18.953Z,9.90
2023-01-17T12:26:53.493Z,9.90
2023-01-17T12:29:44.863Z,10.00
2023-01-17T12:32:40.544Z,10.00
2023-01-17T12:35:13.725Z,10.00
2023-01-17T12:37:44.000Z,10.00
2023-01-17T12:40:20.950Z,9.90
2023-01-17T12:42:54.326Z,9.90
2023-01-17T12:45:26.763Z,9.90
2023-01-17T12:47:59.973Z,9.90
2023-01-17T12:50:32.348Z,9.80
2023-01-17T12:53:06.711Z,9.90
2023-01-17T12:55:38.692Z,9.90
2023-01-17T12:58:13.815Z,10.00
2023-01-17T13:00:51.110Z,10.10
2023-01-17T13:03:24.775Z,10.20
2023-01-17T13:05:52.929Z,10.30
2023-01-17T13:08:26.323Z,10.50
2023-01-17T13:10:57.458Z,10.70
2023-01-17T13:13:45.876Z,10.90
2023-01-17T13:16:36.390Z,11.10
2023-01-17T13:19:32.397Z,11.30
2023-01-17T13:22:22.867Z,11.40
2023-01-17T13:25:22.957Z,11.50
2023-01-17T13:28:18.125Z,11.50
2023-01-17T13:31:38.598Z,11.60
2023-01-17T13:34:41.814Z,11.60
2023-01-17T13:38:08.175Z,11.70
2023-01-17T13:40:58.398Z,11.70
2023-01-17T13:44:06.924Z,11.80
2023-01-17T13:47:05.119Z,11.80
2023-01-17T13:49:56.382Z,11.90
2023-01-17T13:52:44.915Z,12.00
2023-01-17T13:55:46.609Z,12.00
2023-01-17T13:59:02.623Z,12.00
2023-01-17T14:01:53.131Z,11.90
2023-01-17T14:05:15.123Z,11.90
2023-01-17T14:08:05.238Z,11.90
2023-01-17T14:10:54.055Z,11.70
2023-01-17T14:13:43.207Z,11.60
2023-01-17T14:16:31.672Z,11.50
2023-01-17T14:19:26.521Z,11.40
2023-01-17T14:22:23.976Z,11.30
2023-01-17T14:25:17.337Z,11.10
2023-01-17T14:28:08.936Z,11.00
2023-01-17T14:30:57.545Z,10.90
2023-01-17T14:33:45.972Z,10.80
2023-01-17T14:36:34.525Z,10.80
2023-01-17T14:39:24.332Z,10.70
2023-01-17T14:42:14.823Z,10.60
2023-01-17T14:45:06.115Z,10.60
2023-01-17T14:47:54.721Z,10.50
2023-01-17T14:50:43.957Z,10.50
2023-01-17T14:53:33.368Z,10.40
2023-01-17T14:56:23.285Z,10.40
2023-01-17T14:59:17.111Z,10.30
2023-01-17T15:02:09.407Z,10.20
2023-01-17T15:04:57.880Z,10.20
2023-01-17T15:07:48.401Z,10.10
2023-01-17T15:10:36.928Z,10.10
2023-01-17T15:13:43.732Z,10.10
2023-01-17T15:16:34.283Z,10.00
2023-01-17T15:19:23.443Z,10.00
2023-01-17T15:22:12.184Z,9.90
2023-01-17T15:25:00.804Z,9.90
2023-01-17T15:27:49.236Z,9.90
2023-01-17T15:30:39.028Z,9.80
2023-01-17T15:33:27.452Z,9.80
2023-01-17T15:36:24.959Z,9.80
2023-01-17T15:39:20.052Z,9.60
2023-01-17T15:42:17.779Z,9.70
2023-01-17T15:45:07.907Z,9.70
2023-01-17T15:47:59.141Z,9.60
2023-01-17T15:50:47.530Z,9.50
2023-01-17T15:53:38.127Z,9.50
2023-01-17T15:56:32.132Z,9.40
2023-01-17T15:59:28.551Z,9.40
2023-01-17T16:02:42.792Z,9.30
2023-01-17T16:05:43.418Z,9.20
2023-01-17T16:08:38.493Z,9.20
2023-01-17T16:11:27.764Z,9.10
2023-01-17T16:14:16.300Z,9.00
2023-01-17T16:17:05.929Z,8.90
2023-01-17T16:19:54.375Z,8.80
2023-01-17T16:22:44.651Z,8.70
2023-01-17T16:25:33.529Z,8.70
2023-01-17T16:28:22.013Z,8.60
2023-01-17T16:31:10.467Z,8.50
2023-01-17T16:33:59.286Z,8.40
2023-01-17T16:36:47.652Z,8.30
2023-01-17T16:39:37.420Z,8.20
2023-01-17T16:42:27.804Z,8.20
2023-01-17T16:45:17.454Z,8.10
2023-01-17T16:48:06.851Z,8.00
2023-01-17T16:50:55.239Z,7.90
2023-01-17T16:53:43.841Z,7.80
2023-01-17T16:56:33.738Z,7.80
2023-01-17T16:59:22.165Z,7.70
2023-01-17T17:02:10.832Z,7.60
2023-01-17T17:04:59.371Z,7.60
2023-01-17T17:07:50.696Z,7.50
2023-01-17T17:10:40.040Z,7.50
2023-01-17T17:13:29.809Z,7.50
2023-01-17T17:16:20.230Z,7.40
2023-01-17T17:19:09.514Z,7.30
2023-01-17T17:21:59.236Z,7.30
2023-01-17T17:24:47.634Z,7.30
2023-01-17T17:27:36.322Z,7.30
2023-01-17T17:30:27.391Z,7.20
2023-01-17T17:33:16.018Z,7.20
2023-01-17T17:36:06.837Z,7.20
2023-01-17T17:38:55.492Z,7.20
2023-01-17T17:41:45.556Z,7.10
2023-01-17T17:44:34.084Z,7.10
2023-01-17T17:47:24.272Z,7.10
2023-01-17T17:50:13.971Z,7.10
2023-01-17T17:53:02.389Z,7.10
2023-01-17T17:55:51.797Z,7.10
2023-01-17T17:58:40.357Z,7.10
2023-01-17T18:01:28.828Z,7.10
2023-01-17T18:04:18.621Z,7.10
2023-01-17T18:07:07.022Z,7.10
2023-01-17T18:09:55.511Z,7.10
2023-01-17T18:12:44.024Z,7.10
2023-01-17T18:15:32.436Z,7.10
2023-01-17T18:18:20.861Z,7.10
2023-01-17T18:21:15.567Z,7.10
2023-01-17T18:24:06.555Z,7.10
2023-01-17T18:26:56.019Z,7.10
2023-01-17T18:29:44.469Z,7.10
2023-01-17T18:32:32.841Z,7.10
2023-01-17T18:35:21.273Z,7.10
2023-01-17T18:38:11.010Z,7.10
2023-01-17T18:41:03.541Z,7.10
2023-01-17T18:43:52.235Z,7.10
2023-01-17T18:46:42.053Z,7.00
2023-01-17T18:49:30.589Z,7.00
2023-01-17T18:52:19.444Z,7.00
2023-01-17T18:55:09.966Z,7.00
2023-01-17T18:57:58.364Z,6.90
2023-01-17T19:00:46.908Z,6.90
2023-01-17T19:03:35.447Z,6.90
2023-01-17T19:06:25.028Z,6.90
2023-01-17T19:09:14.907Z,6.80
2023-01-17T19:12:04.883Z,6.80
2023-01-17T19:14:53.281Z,6.80
2023-01-17T19:17:41.725Z,6.80
2023-01-17T19:20:30.267Z,6.80
2023-01-17T19:23:18.685Z,6.80
2023-01-17T19:26:09.240Z,6.70
2023-01-17T19:28:59.983Z,6.70
2023-01-17T19:31:48.481Z,6.70
2023-01-17T19:34:36.923Z,6.70
2023-01-17T19:37:25.431Z,6.70
2023-01-17T19:40:14.592Z,6.70
2023-01-17T19:43:04.363Z,6.70
2023-01-17T19:46:00.822Z,6.70
2023-01-17T19:48:49.390Z,6.70
2023-01-17T19:51:39.328Z,6.70
2023-01-17T19:54:27.755Z,6.70
2023-01-17T19:57:16.172Z,6.70
2023-01-17T20:00:08.583Z,6.70
2023-01-17T20:03:02.293Z,6.70
2023-01-17T20:05:57.517Z,6.70
2023-01-17T20:08:46.144Z,6.60
2023-01-17T20:11:34.772Z,6.60
2023-01-17T20:14:23.213Z,6.60
2023-01-17T20:17:11.679Z,6.60
2023-01-17T20:20:02.065Z,6.60
2023-01-17T20:22:50.540Z,6.70
2023-01-17T20:25:39.002Z,6.70
2023-01-17T20:28:28.060Z,6.70
2023-01-17T20:31:21.330Z,6.70
2023-01-17T20:34:11.451Z,6.80
2023-01-17T20:37:02.188Z,6.80
2023-01-17T20:39:50.617Z,6.80
2023-01-17T20:42:39.010Z,6.80
2023-01-17T20:45:28.716Z,6.80
2023-01-17T20:48:17.276Z,6.90
2023-01-17T20:51:06.810Z,6.90
2023-01-17T20:53:58.015Z,6.90
2023-01-17T20:56:47.350Z,6.90
2023-01-17T20:59:35.975Z,6.90
2023-01-17T21:02:24.413Z,6.90
2023-01-17T21:05:12.970Z,7.00
2023-01-17T21:08:03.884Z,6.90
2023-01-17T21:10:53.758Z,7.00
2023-01-17T21:13:42.484Z,7.00
2023-01-17T21:16:31.032Z,7.00
2023-01-17T21:19:20.413Z,7.00
2023-01-17T21:22:08.914Z,7.10
2023-01-17T21:24:57.324Z,7.10
2023-01-17T21:27:47.240Z,7.10
2023-01-17T21:30:35.744Z,7.10
2023-01-17T21:33:25.628Z,7.10
2023-01-17T21:36:14.161Z,7.10
2023-01-17T21:39:04.680Z,7.20
2023-01-17T21:41:53.323Z,7.20
2023-01-17T21:44:44.379Z,7.20
2023-01-17T21:47:32.812Z,7.30
2023-01-17T21:50:32.696Z,7.30
2023-01-17T21:53:21.827Z,7.30
2023-01-17T21:56:30.660Z,7.40
2023-01-17T21:59:19.153Z,7.40
2023-01-17T22:02:10.358Z,7.40
2023-01-17T22:04:58.820Z,7.40
2023-01-17T22:08:01.207Z,7.40
2023-01-17T22:10:49.634Z,7.50
2023-01-17T22:13:38.441Z,7.50
2023-01-17T22:16:27.195Z,7.50
2023-01-17T22:19:17.383Z,7.50
2023-01-17T22:22:05.953Z,7.50
2023-01-17T22:24:54.352Z,7.50
2023-01-17T22:27:42.855Z,7.50
2023-01-17T22:30:31.432Z,7.50
2023-01-17T22:33:20.922Z,7.50
2023-01-17T22:36:13.645Z,7.50
2023-01-17T22:39:02.333Z,7.50
2023-01-17T22:41:50.835Z,7.50
2023-01-17T22:44:39.304Z,7.50
2023-01-17T22:47:27.789Z,7.50
2023-01-17T22:50:17.099Z,7.50
2023-01-17T22:53:07.056Z,7.50
2023-01-17T22:56:02.646Z,7.40
2023-01-17T22:58:51.351Z,7.50
2023-01-17T23:01:41.385Z,7.50
2023-01-17T23:04:30.125Z,7.50
2023-01-17T23:07:18.653Z,7.50
2023-01-17T23:10:10.380Z,7.50
2023-01-17T23:12:59.307Z,7.50
2023-01-17T23:16:05.379Z,7.40
2023-01-17T23:19:11.395Z,7.40
2023-01-17T23:22:20.060Z,7.40
2023-01-17T23:25:11.945Z,7.40
2023-01-17T23:28:11.673Z,7.60
2023-01-17T23:31:04.068Z,7.40
2023-01-17T23:33:52.472Z,7.40
2023-01-17T23:36:40.921Z,7.40
2023-01-17T23:39:29.312Z,7.40
2023-01-17T23:42:36.611Z,7.40
2023-01-17T23:45:25.118Z,7.40
2023-01-17T23:48:13.699Z,7.40
2023-01-17T23:51:07.847Z,7.40
2023-01-17T23:54:05.136Z,7.30
2023-01-17T23:56:53.571Z,7.30
2023-01-17T23:59:43.450Z,7.30
